Time;durP1;ratioP1;P1;durP2;ratioP2;P2;SDS_P1;SDS_P2;PMS_P1;PMS_P2;Temp;Humidity;BMP_temperature;BMP_pressure;BME280_temperature;BME280_humidity;BME280_pressure;Samples;Min_cycle;Max_cycle;Signal;HPM_P1;HPM_P2
2023/06/30 00:02:48;;;;;;;56.38;31.00;;;;;;;-149.37;100.00;59372.97;10177454;29;20048;-78
2023/06/30 00:08:50;;;;;;;55.67;33.72;;;;;;;-149.37;100.00;59372.97;10198604;29;20043;-79
2023/06/30 00:14:51;;;;;;;48.45;28.00;;;;;;;-149.37;100.00;59372.97;10212071;29;20149;-78
2023/06/30 00:20:54;;;;;;;37.67;20.08;;;;;;;-149.37;100.00;59372.97;10187027;29;20079;-78
2023/06/30 00:26:56;;;;;;;19.20;13.40;;;;;;;-149.37;100.00;59372.97;10170451;29;20055;-82
2023/06/30 00:32:57;;;;;;;12.77;8.77;;;;;;;-149.37;100.00;59372.97;10194497;29;20069;-79
2023/06/30 00:39:00;;;;;;;13.15;7.25;;;;;;;-149.37;100.00;59372.97;10219526;29;20047;-79
2023/06/30 00:45:03;;;;;;;11.48;7.25;;;;;;;-149.37;100.00;59372.97;10171141;29;20044;-82
2023/06/30 00:51:06;;;;;;;13.90;7.47;;;;;;;-149.37;100.00;59372.97;10202785;29;20085;-78
2023/06/30 00:57:08;;;;;;;;;;;;;;;-149.37;100.00;59372.97;10203078;29;20054;-78
2023/06/30 01:03:19;;;;;;;12.00;6.60;;;;;;;-149.37;100.00;59372.97;10207036;29;19943;-77
2023/06/30 01:09:28;;;;;;;9.77;5.40;;;;;;;-149.37;100.00;59372.97;10227711;29;20063;-82
2023/06/30 01:15:31;;;;;;;13.38;5.47;;;;;;;-149.37;100.00;59372.97;10218541;29;20142;-79
2023/06/30 01:21:33;;;;;;;6.88;4.90;;;;;;;-149.37;100.00;59372.97;10225447;29;20048;-77
2023/06/30 01:27:37;;;;;;;11.95;5.35;;;;;;;-149.37;100.00;59372.97;10223138;29;20090;-79
2023/06/30 01:33:42;;;;;;;7.15;5.95;;;;;;;-149.37;100.00;59372.97;10222940;29;20059;-77
2023/06/30 01:39:43;;;;;;;9.43;5.82;;;;;;;-149.37;100.00;59372.97;10227630;29;20416;-81
2023/06/30 01:45:46;;;;;;;9.55;4.57;;;;;;;-149.37;100.00;59372.97;10208140;29;20056;-79
2023/06/30 01:51:52;;;;;;;8.00;4.80;;;;;;;-149.37;100.00;59372.97;10211184;29;20071;-81
2023/06/30 01:57:53;;;;;;;6.20;4.57;;;;;;;-149.37;100.00;59372.97;10234403;29;20048;-79
2023/06/30 02:03:55;;;;;;;10.52;4.90;;;;;;;-149.37;100.00;59372.97;10234623;29;20059;-79
2023/06/30 02:09:58;;;;;;;5.68;4.63;;;;;;;-149.37;100.00;59372.97;10243795;29;20134;-78
2023/06/30 02:15:59;;;;;;;9.02;5.07;;;;;;;-149.37;100.00;59372.97;10212241;29;20067;-79
2023/06/30 02:22:01;;;;;;;9.02;4.60;;;;;;;-149.37;100.00;59372.97;10229581;29;20043;-80
2023/06/30 02:28:04;;;;;;;7.50;4.50;;;;;;;-149.37;100.00;59372.97;10226662;29;20044;-79
2023/06/30 02:34:06;;;;;;;5.20;4.50;;;;;;;-149.37;100.00;59372.97;10225096;29;20078;-77
2023/06/30 02:40:08;;;;;;;11.85;5.05;;;;;;;-149.37;100.00;59372.97;10212931;29;20040;-79
2023/06/30 02:46:11;;;;;;;7.30;6.38;;;;;;;-149.37;100.00;59372.97;10197229;29;20492;-80
2023/06/30 02:52:13;;;;;;;;;;;;;;;-149.37;100.00;59372.97;10212857;29;20050;-80
2023/06/30 02:58:14;;;;;;;8.32;6.40;;;;;;;-149.37;100.00;59372.97;10220702;29;19923;-78
2023/06/30 03:04:17;;;;;;;9.18;6.55;;;;;;;-149.37;100.00;59372.97;10219495;29;20499;-78
2023/06/30 03:10:19;;;;;;;8.00;5.75;;;;;;;-149.37;100.00;59372.97;10231936;29;20047;-81
2023/06/30 03:16:20;;;;;;;8.63;6.40;;;;;;;-149.37;100.00;59372.97;10199085;29;20103;-79
2023/06/30 03:22:23;;;;;;;8.10;6.18;;;;;;;-149.37;100.00;59372.97;10197086;29;20048;-79
2023/06/30 03:28:26;;;;;;;12.75;6.30;;;;;;;-149.37;100.00;59372.97;10231655;29;20439;-77
2023/06/30 03:34:28;;;;;;;7.13;6.38;;;;;;;-149.37;100.00;59372.97;10237806;28;20060;-80
2023/06/30 03:40:32;;;;;;;;;;;;;;;-149.37;100.00;59372.97;10203418;29;20071;-79
2023/06/30 03:46:34;;;;;;;11.07;6.33;;;;;;;-149.37;100.00;59372.97;10211602;29;19946;-80
2023/06/30 03:52:35;;;;;;;14.20;7.35;;;;;;;-149.37;100.00;59372.97;10207560;29;20078;-76
2023/06/30 03:58:38;;;;;;;9.48;7.45;;;;;;;-149.37;100.00;59372.97;10183970;29;20047;-78
2023/06/30 04:04:26;;;;;;;15.90;7.70;;;;;;;-149.37;100.00;59372.97;10209112;29;20106;-77
2023/06/30 04:10:18;;;;;;;15.48;7.55;;;;;;;-149.37;100.00;59372.97;10190160;29;20555;-78
2023/06/30 04:16:21;;;;;;;9.75;7.80;;;;;;;-149.37;100.00;59372.97;10209611;29;20464;-77
2023/06/30 04:22:19;;;;;;;14.88;7.80;;;;;;;-149.37;100.00;59372.97;10185293;29;20051;-78
2023/06/30 04:28:20;;;;;;;14.43;10.25;;;;;;;-149.37;100.00;59372.97;10180413;29;20893;-78
2023/06/30 04:34:23;;;;;;;14.85;10.18;;;;;;;-149.37;100.00;59372.97;10176927;29;20516;-77
2023/06/30 04:40:25;;;;;;;17.73;10.38;;;;;;;-149.37;100.00;59372.97;10224541;29;20593;-78
2023/06/30 04:46:14;;;;;;;15.88;12.93;;;;;;;-149.37;100.00;59372.97;10211635;29;20419;-82
2023/06/30 04:52:17;;;;;;;17.80;13.60;;;;;;;-149.37;100.00;59372.97;10170416;29;20063;-82
2023/06/30 04:58:19;;;;;;;;;;;;;;;-149.37;100.00;59372.97;10170562;29;20072;-79
2023/06/30 05:04:20;;;;;;;19.63;13.75;;;;;;;-149.37;100.00;59372.97;10208995;29;19970;-78
2023/06/30 05:10:23;;;;;;;15.55;12.55;;;;;;;-149.37;100.00;59372.97;10177396;29;20054;-77
2023/06/30 05:16:24;;;;;;;17.35;12.95;;;;;;;-149.37;100.00;59372.97;10175116;29;20047;-77
2023/06/30 05:22:25;;;;;;;21.08;13.27;;;;;;;-149.37;100.00;59372.97;10184465;29;20057;-78
2023/06/30 05:28:28;;;;;;;17.77;14.85;;;;;;;-149.37;100.00;59372.97;10207777;29;20439;-77
2023/06/30 05:34:30;;;;;;;20.38;14.82;;;;;;;-149.37;100.00;59372.97;10169753;29;20040;-78
2023/06/30 05:40:31;;;;;;;25.55;15.95;;;;;;;-149.37;100.00;59372.97;10169108;29;20056;-79
2023/06/30 05:46:34;;;;;;;24.80;15.13;;;;;;;-149.37;100.00;59372.97;10169086;29;20036;-77
2023/06/30 05:52:35;;;;;;;19.90;14.38;;;;;;;-149.37;100.00;59372.97;10209484;29;20604;-79
2023/06/30 05:58:39;;;;;;;23.33;15.23;;;;;;;-149.37;100.00;59372.97;10217218;29;20122;-77
2023/06/30 06:04:42;;;;;;;17.65;12.32;;;;;;;-149.37;100.00;59372.97;10217621;29;20044;-78
2023/06/30 06:10:42;;;;;;;;;;;;;;;-149.37;100.00;59372.97;10208953;29;20047;-77
2023/06/30 06:16:45;;;;;;;12.07;9.80;;;;;;;-149.37;100.00;59372.97;10214973;29;20009;-80
2023/06/30 06:22:48;;;;;;;15.35;9.57;;;;;;;-149.37;100.00;59372.97;10176314;29;20129;-77
2023/06/30 06:28:49;;;;;;;17.33;11.70;;;;;;;-149.37;100.00;59372.97;10190998;29;20510;-76
2023/06/30 06:34:51;;;;;;;21.55;12.23;;;;;;;-149.37;100.00;59372.97;10210665;29;20146;-78
2023/06/30 06:40:53;;;;;;;18.23;14.38;;;;;;;-149.37;100.00;59372.97;10200599;29;20052;-75
2023/06/30 06:47:10;;;;;;;22.38;13.98;;;;;;;-149.37;100.00;59372.97;10205470;29;20036;-76
2023/06/30 06:53:14;;;;;;;22.05;12.60;;;;;;;-149.37;100.00;59372.97;10204882;29;20054;-76
2023/06/30 06:59:17;;;;;;;18.80;12.02;;;;;;;-149.37;100.00;59372.97;10200839;29;20078;-76
2023/06/30 07:05:18;;;;;;;16.25;11.38;;;;;;;-149.37;100.00;59372.97;10208510;29;20036;-75
2023/06/30 07:11:20;;;;;;;17.85;10.77;;;;;;;-149.37;100.00;59372.97;10203136;29;20044;-76
2023/06/30 07:17:22;;;;;;;19.00;12.10;;;;;;;-149.37;100.00;59372.97;10207249;29;20051;-77
2023/06/30 07:23:25;;;;;;;17.35;13.18;;;;;;;-149.37;100.00;59372.97;10197143;29;20055;-76
2023/06/30 07:29:28;;;;;;;21.25;14.43;;;;;;;-149.37;100.00;59372.97;10204938;29;20054;-77
2023/06/30 07:35:30;;;;;;;17.63;12.20;;;;;;;-149.37;100.00;59372.97;10202652;29;20051;-76
2023/06/30 07:41:34;;;;;;;18.95;8.70;;;;;;;-149.37;100.00;59372.97;10195953;29;20480;-77
2023/06/30 07:47:37;;;;;;;10.48;7.60;;;;;;;-149.37;100.00;59372.97;10196357;29;20048;-77
2023/06/30 07:53:41;;;;;;;9.52;5.65;;;;;;;-149.37;100.00;59372.97;10198249;29;20099;-77
2023/06/30 07:59:42;;;;;;;10.13;4.45;;;;;;;-149.37;100.00;59372.97;10205772;29;20051;-77
2023/06/30 08:05:43;;;;;;;8.70;4.22;;;;;;;-149.37;100.00;59372.97;10201084;29;20046;-77
2023/06/30 08:11:48;;;;;;;11.70;5.82;;;;;;;-149.37;100.00;59372.97;10193175;29;20422;-78
2023/06/30 08:17:49;;;;;;;;;;;;;;;-149.37;100.00;59372.97;10201773;29;20044;-76
2023/06/30 08:23:57;;;;;;;9.57;6.50;;;;;;;-149.37;100.00;59372.97;10203863;29;19973;-76
2023/06/30 08:30:00;;;;;;;7.22;5.75;;;;;;;-149.37;100.00;59372.97;10205648;29;20122;-77
2023/06/30 08:36:02;;;;;;;10.98;6.32;;;;;;;-149.37;100.00;59372.97;10194093;29;20495;-77
2023/06/30 08:42:04;;;;;;;10.75;7.28;;;;;;;-149.37;100.00;59372.97;10203358;29;20067;-77
2023/06/30 08:48:08;;;;;;;10.05;6.93;;;;;;;-149.37;100.00;59372.97;10202572;29;20050;-77
2023/06/30 08:54:09;;;;;;;8.45;5.00;;;;;;;-149.37;100.00;59372.97;10183516;29;20495;-78
2023/06/30 09:00:12;;;;;;;6.55;4.90;;;;;;;-149.37;100.00;59372.97;10202627;29;20036;-77
2023/06/30 09:06:15;;;;;;;8.73;5.00;;;;;;;-149.37;100.00;59372.97;10197586;29;20052;-78
2023/06/30 09:12:18;;;;;;;5.18;3.03;;;;;;;-149.37;100.00;59372.97;10203416;29;20495;-79
2023/06/30 09:18:20;;;;;;;3.45;3.13;;;;;;;-149.37;100.00;59372.97;10186898;29;20048;-77
2023/06/30 09:24:23;;;;;;;4.15;3.08;;;;;;;-149.37;100.00;59372.97;10212144;29;20078;-78
2023/06/30 09:30:32;;;;;;;4.80;3.00;;;;;;;-149.37;100.00;59372.97;10209101;29;20103;-78
2023/06/30 09:36:37;;;;;;;8.43;2.72;;;;;;;-149.37;100.00;59372.97;10211956;29;20052;-79
2023/06/30 09:42:44;;;;;;;4.65;2.10;;;;;;;-149.37;100.00;59372.97;10223156;28;20075;-78
2023/06/30 09:48:54;;;;;;;8.20;2.60;;;;;;;-149.37;100.00;59372.97;10220723;29;20511;-78
2023/06/30 09:54:55;;;;;;;3.63;2.20;;;;;;;-149.37;100.00;59372.97;10221869;29;20511;-78
2023/06/30 10:00:59;;;;;;;5.63;2.00;;;;;;;-149.37;100.00;59372.97;10226402;29;20079;-78
2023/06/30 10:07:03;;;;;;;4.75;2.35;;;;;;;-149.37;100.00;59372.97;10212225;29;20047;-78
2023/06/30 10:13:06;;;;;;;6.15;2.30;;;;;;;-149.37;100.00;59372.97;10217759;29;20043;-77
2023/06/30 10:19:09;;;;;;;3.53;1.67;;;;;;;-149.37;100.00;59372.97;10215872;29;20106;-77
2023/06/30 10:25:14;;;;;;;6.03;1.63;;;;;;;-149.37;100.00;59372.97;10212190;29;20052;-78
2023/06/30 10:31:16;;;;;;;3.65;1.65;;;;;;;-149.37;100.00;59372.97;10212278;29;20050;-77
2023/06/30 10:37:20;;;;;;;3.87;1.73;;;;;;;-149.37;100.00;59372.97;10207662;29;20062;-79
2023/06/30 10:43:25;;;;;;;4.82;1.85;;;;;;;-149.37;100.00;59372.97;10214546;29;20396;-79
2023/06/30 10:49:27;;;;;;;7.50;2.20;;;;;;;-149.37;100.00;59372.97;10221153;29;20533;-80
2023/06/30 10:55:30;;;;;;;2.55;1.35;;;;;;;-149.37;100.00;59372.97;10212111;29;20113;-80
2023/06/30 11:00:34;;;;;;;4.65;1.50;;;;;;;-149.37;100.00;59372.97;10221961;29;20516;-81
2023/06/30 11:05:37;;;;;;;4.68;1.63;;;;;;;-149.37;100.00;59372.97;10219481;29;20486;-80
2023/06/30 11:10:47;;;;;;;4.97;1.63;;;;;;;-149.37;100.00;59372.97;10218597;29;20047;-78
2023/06/30 11:15:50;;;;;;;5.57;1.50;;;;;;;-149.37;100.00;59372.97;10204315;29;20048;-79
2023/06/30 11:21:00;;;;;;;2.20;1.33;;;;;;;-149.37;100.00;59372.97;10205931;29;20134;-80
2023/06/30 11:26:16;;;;;;;4.55;1.63;;;;;;;-149.37;100.00;59372.97;10208022;29;20052;-78
2023/06/30 11:31:19;;;;;;;4.80;1.50;;;;;;;-149.37;100.00;59372.97;10219520;29;20048;-79
2023/06/30 11:36:22;;;;;;;4.97;1.40;;;;;;;-149.37;100.00;59372.97;10206772;29;20039;-79
2023/06/30 11:41:33;;;;;;;2.50;1.35;;;;;;;-149.37;100.00;59372.97;10203210;29;20050;-79
2023/06/30 11:46:36;;;;;;;5.97;1.80;;;;;;;-149.37;100.00;59372.97;10209148;29;20082;-79
2023/06/30 11:51:39;;;;;;;2.88;1.20;;;;;;;-149.37;100.00;59372.97;10213958;29;20497;-78
2023/06/30 11:56:44;;;;;;;3.60;1.80;;;;;;;-149.37;100.00;59372.97;10205880;29;20143;-78
2023/06/30 12:01:47;;;;;;;3.10;1.50;;;;;;;-149.37;100.00;59372.97;10201982;29;20512;-78
2023/06/30 12:06:50;;;;;;;2.88;1.52;;;;;;;-149.37;100.00;59372.97;10200410;29;20044;-79
2023/06/30 12:11:56;;;;;;;5.95;2.05;;;;;;;-149.37;100.00;59372.97;10203585;29;20156;-79
2023/06/30 12:16:58;;;;;;;3.35;1.60;;;;;;;-149.37;100.00;59372.97;10206972;29;20046;-79
2023/06/30 12:22:03;;;;;;;2.80;2.08;;;;;;;-149.37;100.00;59372.97;10208057;29;20052;-79
2023/06/30 12:27:08;;;;;;;3.47;1.77;;;;;;;-149.37;100.00;59372.97;10207197;29;20066;-79
2023/06/30 12:32:15;;;;;;;3.78;2.50;;;;;;;-149.37;100.00;59372.97;10189394;29;20045;-78
2023/06/30 12:37:19;;;;;;;5.05;2.45;;;;;;;-149.37;100.00;59372.97;10199722;29;20369;-80
2023/06/30 12:42:25;;;;;;;2.70;2.10;;;;;;;-149.37;100.00;59372.97;10198943;29;20095;-79
2023/06/30 12:47:28;;;;;;;3.42;2.17;;;;;;;-149.37;100.00;59372.97;10205879;29;20083;-80
2023/06/30 12:52:31;;;;;;;3.47;2.22;;;;;;;-149.37;100.00;59372.97;10206633;29;20055;-79
2023/06/30 12:57:35;;;;;;;2.78;2.30;;;;;;;-149.37;100.00;59372.97;10199689;29;20607;-79
2023/06/30 13:02:39;;;;;;;3.88;2.53;;;;;;;-149.37;100.00;59372.97;10199125;29;20048;-81
2023/06/30 13:07:42;;;;;;;2.72;2.53;;;;;;;-149.37;100.00;59372.97;10210816;29;20106;-78
2023/06/30 13:12:46;;;;;;;2.75;2.50;;;;;;;-149.37;100.00;59372.97;10194033;29;20040;-78
2023/06/30 13:17:50;;;;;;;4.75;2.55;;;;;;;-149.37;100.00;59372.97;10199299;29;20040;-77
2023/06/30 13:22:53;;;;;;;4.35;2.50;;;;;;;-149.37;100.00;59372.97;10199255;29;20063;-78
2023/06/30 13:28:17;;;;;;;2.50;2.28;;;;;;;-149.37;100.00;59372.97;10192340;29;20040;-78
2023/06/30 13:33:20;;;;;;;2.60;2.40;;;;;;;-149.37;100.00;59372.97;10192875;29;20495;-78
2023/06/30 13:38:25;;;;;;;3.88;1.90;;;;;;;-149.37;100.00;59372.97;10193510;29;20043;-77
2023/06/30 13:43:30;;;;;;;4.38;2.25;;;;;;;-149.37;100.00;59372.97;10196606;29;20056;-77
2023/06/30 13:48:33;;;;;;;3.28;1.73;;;;;;;-149.37;100.00;59372.97;10190204;29;20067;-78
2023/06/30 13:53:38;;;;;;;2.85;2.08;;;;;;;-149.37;100.00;59372.97;10193020;29;20427;-78
2023/06/30 13:58:43;;;;;;;1.80;1.25;;;;;;;-149.37;100.00;59372.97;10192150;29;20060;-78
2023/06/30 14:03:50;;;;;;;4.00;1.60;;;;;;;-149.37;100.00;59372.97;10191766;29;20036;-77
2023/06/30 14:08:53;;;;;;;8.10;2.22;;;;;;;-149.37;100.00;59372.97;10189210;29;20043;-77
2023/06/30 14:14:03;;;;;;;4.60;2.15;;;;;;;-149.37;100.00;59372.97;10191666;29;20039;-77
2023/06/30 14:19:06;;;;;;;2.25;1.60;;;;;;;-149.37;100.00;59372.97;10191725;29;20522;-77
2023/06/30 14:24:09;;;;;;;2.22;1.35;;;;;;;-149.37;100.00;59372.97;10191345;29;20040;-78
2023/06/30 14:29:13;;;;;;;2.72;1.10;;;;;;;-149.37;100.00;59372.97;10191200;29;20042;-77
2023/06/30 14:34:16;;;;;;;2.50;1.30;;;;;;;-149.37;100.00;59372.97;10206419;29;20052;-76
2023/06/30 14:39:19;;;;;;;1.38;1.00;;;;;;;-149.37;100.00;59372.97;10197614;29;20040;-77
2023/06/30 14:44:25;;;;;;;4.50;1.30;;;;;;;-149.37;100.00;59372.97;10197956;29;20043;-77
2023/06/30 14:49:28;;;;;;;3.13;1.23;;;;;;;-149.37;100.00;59372.97;10196448;29;20087;-77
2023/06/30 14:54:31;;;;;;;1.77;1.13;;;;;;;-149.37;100.00;59372.97;10198936;29;20518;-77
2023/06/30 14:59:35;;;;;;;3.28;1.15;;;;;;;-149.37;100.00;59372.97;10200858;29;20052;-77
2023/06/30 15:04:38;;;;;;;1.65;0.90;;;;;;;-149.37;100.00;59372.97;10198324;29;20047;-77
2023/06/30 15:09:41;;;;;;;2.22;0.93;;;;;;;-149.37;100.00;59372.97;10189512;29;20496;-77
2023/06/30 15:14:48;;;;;;;1.23;0.90;;;;;;;-149.37;100.00;59372.97;10200473;29;20420;-77
2023/06/30 15:19:51;;;;;;;1.80;0.95;;;;;;;-149.37;100.00;59372.97;10197523;29;20542;-77
2023/06/30 15:24:56;;;;;;;2.45;1.00;;;;;;;-149.37;100.00;59372.97;10196872;29;20056;-77
2023/06/30 15:30:00;;;;;;;1.25;0.90;;;;;;;-149.37;100.00;59372.97;10194341;29;20072;-77
2023/06/30 15:35:04;;;;;;;3.25;0.90;;;;;;;-149.37;100.00;59372.97;10214321;29;20075;-76
2023/06/30 15:40:08;;;;;;;1.60;1.05;;;;;;;-149.37;100.00;59372.97;10209593;29;20044;-77
2023/06/30 15:45:12;;;;;;;6.50;0.90;;;;;;;-149.37;100.00;59372.97;10193057;29;20044;-77
2023/06/30 15:50:15;;;;;;;2.00;0.90;;;;;;;-149.37;100.00;59372.97;10195697;29;20074;-77
2023/06/30 15:55:18;;;;;;;2.53;1.02;;;;;;;-149.37;100.00;59372.97;10196941;29;20044;-78
2023/06/30 16:00:23;;;;;;;3.78;1.10;;;;;;;-149.37;100.00;59372.97;10215664;29;20048;-79
2023/06/30 16:05:25;;;;;;;3.53;0.90;;;;;;;-149.37;100.00;59372.97;10212406;29;20044;-79
2023/06/30 16:10:29;;;;;;;4.25;1.20;;;;;;;-149.37;100.00;59372.97;10213996;29;20055;-78
2023/06/30 16:15:33;;;;;;;3.42;1.13;;;;;;;-149.37;100.00;59372.97;10209320;29;20066;-78
2023/06/30 16:20:36;;;;;;;1.63;0.93;;;;;;;-149.37;100.00;59372.97;10208581;29;20040;-79
2023/06/30 16:25:39;;;;;;;1.17;0.90;;;;;;;-149.37;100.00;59372.97;10209004;29;20071;-78
2023/06/30 16:30:43;;;;;;;2.13;1.13;;;;;;;-149.37;100.00;59372.97;10211656;29;20710;-79
2023/06/30 16:35:46;;;;;;;3.25;0.95;;;;;;;-149.37;100.00;59372.97;10208984;29;20071;-79
2023/06/30 16:40:50;;;;;;;4.35;0.90;;;;;;;-149.37;100.00;59372.97;10204598;29;20051;-79
2023/06/30 16:45:55;;;;;;;3.30;1.08;;;;;;;-149.37;100.00;59372.97;10211139;29;20046;-78
2023/06/30 16:50:58;;;;;;;2.80;1.05;;;;;;;-149.37;100.00;59372.97;10209483;29;20043;-79
2023/06/30 16:56:01;;;;;;;2.85;1.15;;;;;;;-149.37;100.00;59372.97;10209241;29;20099;-78
2023/06/30 17:01:06;;;;;;;4.95;1.50;;;;;;;-149.37;100.00;59372.97;10207663;29;20090;-78
2023/06/30 17:06:09;;;;;;;3.50;1.95;;;;;;;-149.37;100.00;59372.97;10203282;29;20040;-79
2023/06/30 17:11:12;;;;;;;1.63;1.00;;;;;;;-149.37;100.00;59372.97;10218688;29;20171;-78
2023/06/30 17:16:16;;;;;;;2.35;1.13;;;;;;;-149.37;100.00;59372.97;10205268;29;20500;-78
2023/06/30 17:21:19;;;;;;;2.88;1.30;;;;;;;-149.37;100.00;59372.97;10212272;29;20035;-79
2023/06/30 17:26:22;;;;;;;1.55;0.80;;;;;;;-149.37;100.00;59372.97;10210677;29;20054;-77
2023/06/30 17:31:26;;;;;;;3.33;1.60;;;;;;;-149.37;100.00;59372.97;10203564;29;20120;-78
2023/06/30 17:36:29;;;;;;;2.72;1.00;;;;;;;-149.37;100.00;59372.97;10217879;29;20050;-78
2023/06/30 17:41:32;;;;;;;1.95;1.30;;;;;;;-149.37;100.00;59372.97;10214930;29;20062;-78
2023/06/30 17:46:36;;;;;;;2.00;1.20;;;;;;;-149.37;100.00;59372.97;10228685;29;20054;-78
2023/06/30 17:51:39;;;;;;;4.68;1.23;;;;;;;-149.37;100.00;59372.97;10217830;29;20107;-78
2023/06/30 17:56:42;;;;;;;2.78;1.45;;;;;;;-149.37;100.00;59372.97;10215318;29;20047;-78
2023/06/30 18:01:47;;;;;;;1.55;0.95;;;;;;;-149.37;100.00;59372.97;10214045;29;20463;-78
2023/06/30 18:07:00;;;;;;;2.88;1.55;;;;;;;-149.37;100.00;59372.97;10210037;29;20068;-78
2023/06/30 18:12:04;;;;;;;1.60;1.13;;;;;;;-149.37;100.00;59372.97;10212508;29;20048;-77
2023/06/30 18:17:09;;;;;;;2.40;1.42;;;;;;;-149.37;100.00;59372.97;10212439;29;20574;-79
2023/06/30 18:22:13;;;;;;;3.75;1.48;;;;;;;-149.37;100.00;59372.97;10238222;29;20112;-78
2023/06/30 18:27:16;;;;;;;4.35;1.20;;;;;;;-149.37;100.00;59372.97;10222275;29;20043;-78
2023/06/30 18:32:21;;;;;;;3.78;1.20;;;;;;;-149.37;100.00;59372.97;10214934;29;20124;-78
2023/06/30 18:37:24;;;;;;;4.30;1.35;;;;;;;-149.37;100.00;59372.97;10210360;29;20051;-78
2023/06/30 18:42:26;;;;;;;2.92;1.20;;;;;;;-149.37;100.00;59372.97;10214708;29;20051;-78
2023/06/30 18:47:31;;;;;;;2.92;1.65;;;;;;;-149.37;100.00;59372.97;10210546;29;20055;-79
2023/06/30 18:52:34;;;;;;;3.83;1.27;;;;;;;-149.37;100.00;59372.97;10215778;29;20050;-78
2023/06/30 18:57:37;;;;;;;2.65;1.20;;;;;;;-149.37;100.00;59372.97;10212211;29;20050;-78
2023/06/30 19:02:41;;;;;;;3.85;1.30;;;;;;;-149.37;100.00;59372.97;10210047;29;20127;-78
2023/06/30 19:07:44;;;;;;;4.75;1.65;;;;;;;-149.37;100.00;59372.97;10206835;29;20044;-78
2023/06/30 19:12:47;;;;;;;2.30;1.23;;;;;;;-149.37;100.00;59372.97;10207995;29;20460;-78
2023/06/30 19:17:51;;;;;;;1.52;1.17;;;;;;;-149.37;100.00;59372.97;10205869;29;20043;-77
2023/06/30 19:22:54;;;;;;;2.63;1.17;;;;;;;-149.37;100.00;59372.97;10205484;29;20048;-78
2023/06/30 19:27:57;;;;;;;2.88;1.42;;;;;;;-149.37;100.00;59372.97;10215767;29;20122;-77
2023/06/30 19:33:01;;;;;;;1.63;0.98;;;;;;;-149.37;100.00;59372.97;10212639;29;20048;-76
2023/06/30 19:50:24;;;;;;;2.47;1.88;;;;;;;-149.37;100.00;59372.97;10196616;29;20066;-75
2023/06/30 19:55:27;;;;;;;3.95;1.42;;;;;;;-149.37;100.00;59372.97;10192909;29;20044;-74
2023/06/30 20:00:30;;;;;;;2.50;1.67;;;;;;;-149.37;100.00;59372.97;10195425;29;20088;-73
2023/06/30 20:05:35;;;;;;;2.00;1.80;;;;;;;-149.37;100.00;59372.97;10191303;29;20063;-74
2023/06/30 20:10:39;;;;;;;5.05;1.90;;;;;;;-149.37;100.00;59372.97;10194535;29;20691;-74
2023/06/30 20:15:42;;;;;;;5.55;1.60;;;;;;;-149.37;100.00;59372.97;10196917;29;20074;-74
2023/06/30 20:20:46;;;;;;;2.47;1.88;;;;;;;-149.37;100.00;59372.97;10186033;29;20599;-74
2023/06/30 20:25:49;;;;;;;4.88;2.20;;;;;;;-149.37;100.00;59372.97;10196781;29;20052;-73
2023/06/30 20:30:53;;;;;;;4.03;2.35;;;;;;;-149.37;100.00;59372.97;10194338;29;20043;-74
2023/06/30 20:35:57;;;;;;;7.65;2.25;;;;;;;-149.37;100.00;59372.97;10200925;29;20040;-74
2023/06/30 20:41:00;;;;;;;4.03;1.95;;;;;;;-149.37;100.00;59372.97;10203455;29;20095;-74
2023/06/30 20:46:03;;;;;;;4.55;1.90;;;;;;;-149.37;100.00;59372.97;10197637;29;20711;-74
2023/06/30 20:51:07;;;;;;;5.25;2.03;;;;;;;-149.37;100.00;59372.97;10182080;29;20044;-72
2023/06/30 20:56:10;;;;;;;2.90;2.05;;;;;;;-149.37;100.00;59372.97;10200474;29;20502;-74
2023/06/30 21:01:12;;;;;;;3.65;1.88;;;;;;;-149.37;100.00;59372.97;10198979;29;20582;-74
2023/06/30 21:06:17;;;;;;;4.40;2.45;;;;;;;-149.37;100.00;59372.97;10197963;29;20059;-76
2023/06/30 21:11:20;;;;;;;4.45;1.90;;;;;;;-149.37;100.00;59372.97;10205065;29;20388;-75
2023/06/30 21:16:23;;;;;;;4.10;1.98;;;;;;;-149.37;100.00;59372.97;10207073;29;20046;-74
2023/06/30 21:21:27;;;;;;;3.15;1.75;;;;;;;-149.37;100.00;59372.97;10220462;29;20048;-74
2023/06/30 21:26:30;;;;;;;2.70;1.90;;;;;;;-149.37;100.00;59372.97;10206417;29;20040;-74
2023/06/30 21:31:33;;;;;;;2.40;1.52;;;;;;;-149.37;100.00;59372.97;10213320;29;20430;-74
2023/06/30 21:36:37;;;;;;;3.50;2.00;;;;;;;-149.37;100.00;59372.97;10205672;29;20055;-74
2023/06/30 21:41:41;;;;;;;2.25;2.00;;;;;;;-149.37;100.00;59372.97;10207297;29;20040;-73
2023/06/30 21:46:45;;;;;;;4.40;2.35;;;;;;;-149.37;100.00;59372.97;10217124;29;20416;-75
2023/06/30 21:51:49;;;;;;;2.65;1.75;;;;;;;-149.37;100.00;59372.97;10212281;29;20046;-75
2023/06/30 21:56:52;;;;;;;2.10;1.83;;;;;;;-149.37;100.00;59372.97;10206547;29;20043;-74
2023/06/30 22:01:55;;;;;;;5.43;2.22;;;;;;;-149.37;100.00;59372.97;10203151;29;20127;-74
2023/06/30 22:06:59;;;;;;;5.07;2.67;;;;;;;-149.37;100.00;59372.97;10194768;29;20530;-75
2023/06/30 22:12:05;;;;;;;4.70;2.08;;;;;;;-149.37;100.00;59372.97;10202635;29;20040;-74
2023/06/30 22:17:08;;;;;;;3.08;2.30;;;;;;;-149.37;100.00;59372.97;10198326;29;20051;-76
2023/06/30 22:22:12;;;;;;;3.80;2.20;;;;;;;-149.37;100.00;59372.97;10197820;29;20052;-74
2023/06/30 22:27:15;;;;;;;3.50;2.25;;;;;;;-149.37;100.00;59372.97;10203120;29;20051;-74
2023/06/30 22:32:18;;;;;;;4.32;2.63;;;;;;;-149.37;100.00;59372.97;10201855;29;20074;-75
2023/06/30 22:37:22;;;;;;;4.70;2.50;;;;;;;-149.37;100.00;59372.97;10198497;29;20488;-74
2023/06/30 22:42:25;;;;;;;4.35;2.28;;;;;;;-149.37;100.00;59372.97;10206789;29;20498;-73
2023/06/30 22:47:28;;;;;;;5.72;2.30;;;;;;;-149.37;100.00;59372.97;10195700;29;20054;-73
2023/06/30 22:52:32;;;;;;;3.25;2.67;;;;;;;-149.37;100.00;59372.97;10192022;29;20058;-75
2023/06/30 22:57:35;;;;;;;5.15;2.55;;;;;;;-149.37;100.00;59372.97;10201809;29;20055;-75
2023/06/30 23:02:38;;;;;;;6.03;2.55;;;;;;;-149.37;100.00;59372.97;10202890;29;20091;-75
2023/06/30 23:07:43;;;;;;;4.28;2.42;;;;;;;-149.37;100.00;59372.97;10203073;29;20065;-75
2023/06/30 23:12:46;;;;;;;3.65;2.63;;;;;;;-149.37;100.00;59372.97;10192185;29;20065;-74
2023/06/30 23:17:49;;;;;;;5.05;3.03;;;;;;;-149.37;100.00;59372.97;10190288;29;20495;-74
2023/06/30 23:22:54;;;;;;;2.63;2.42;;;;;;;-149.37;100.00;59372.97;10198583;29;20078;-74
2023/06/30 23:27:57;;;;;;;5.60;2.80;;;;;;;-149.37;100.00;59372.97;10201438;29;20039;-74
2023/06/30 23:33:03;;;;;;;4.18;2.97;;;;;;;-149.37;100.00;59372.97;10216197;29;20048;-76
2023/06/30 23:38:07;;;;;;;5.20;2.63;;;;;;;-149.37;100.00;59372.97;10210432;29;20054;-75
2023/06/30 23:43:10;;;;;;;6.10;2.63;;;;;;;-149.37;100.00;59372.97;10201035;29;20419;-75
2023/06/30 23:48:13;;;;;;;5.35;3.20;;;;;;;-149.37;100.00;59372.97;10202348;29;20078;-74
2023/06/30 23:53:17;;;;;;;3.95;3.05;;;;;;;-149.37;100.00;59372.97;10197845;29;20054;-75
2023/06/30 23:58:20;;;;;;;3.55;3.20;;;;;;;-149.37;100.00;59372.97;10197224;29;20042;-74
